Time;durP1;ratioP1;P1;durP2;ratioP2;P2;SDS_P1;SDS_P2;PMS_P1;PMS_P2;Temp;Humidity;BMP_temperature;BMP_pressure;BME280_temperature;BME280_humidity;BME280_pressure;Samples;Min_cycle;Max_cycle;Signal;HPM_P1;HPM_P2
2021/12/02 00:00:32;;;;;;;4.93;1.20;;;3.90;99.90;;;;;;5043535;28;20011;-75
2021/12/02 00:02:57;;;;;;;;;;;3.90;99.90;;;;;;5023991;28;20053;-75
2021/12/02 00:05:23;;;;;;;3.90;1.13;;;3.90;99.90;;;;;;5047980;28;20296;-75
2021/12/02 00:07:51;;;;;;;4.07;1.00;;;3.90;99.90;;;;;;5021608;28;20076;-74
2021/12/02 00:10:17;;;;;;;3.97;1.20;;;3.90;99.90;;;;;;5022649;28;20052;-73
2021/12/02 00:12:42;;;;;;;;;;;3.90;99.90;;;;;;5025557;28;20037;-74
2021/12/02 00:15:17;;;;;;;9.10;1.63;;;3.90;99.90;;;;;;5024556;28;19920;-74
2021/12/02 00:17:52;;;;;;;2.38;0.82;;;3.90;99.90;;;;;;5023806;28;20133;-74
2021/12/02 00:23:29;;;;;;;2.58;0.90;;;3.90;99.90;;;;;;5023194;28;20058;-73
2021/12/02 00:25:59;;;;;;;3.95;0.80;;;3.90;99.90;;;;;;5016486;28;20045;-75
2021/12/02 00:28:27;;;;;;;3.42;1.27;;;4.10;99.90;;;;;;5036268;28;20079;-74
2021/12/02 00:31:00;;;;;;;4.20;1.13;;;4.20;99.90;;;;;;5018851;28;20041;-74
2021/12/02 00:33:28;;;;;;;6.65;1.00;;;4.20;99.90;;;;;;5024998;28;20048;-74
2021/12/02 00:35:54;;;;;;;5.15;0.85;;;4.20;99.90;;;;;;5025942;28;20047;-74
2021/12/02 00:38:21;;;;;;;;;;;4.10;99.90;;;;;;5036481;28;20053;-74
2021/12/02 00:40:47;;;;;;;;;;;3.90;99.90;;;;;;5026935;28;20007;-75
2021/12/02 00:43:13;;;;;;;3.17;0.70;;;3.90;99.90;;;;;;5025819;28;20007;-74
2021/12/02 00:45:40;;;;;;;4.32;1.45;;;3.80;99.90;;;;;;5025068;28;20475;-74
2021/12/02 00:48:10;;;;;;;2.67;0.60;;;3.70;99.90;;;;;;5023892;28;20148;-74
2021/12/02 00:50:49;;;;;;;4.30;1.00;;;3.70;99.90;;;;;;5023859;28;20041;-74
2021/12/02 00:53:19;;;;;;;6.82;1.00;;;3.60;99.90;;;;;;5025023;28;20756;-74
2021/12/02 00:55:47;;;;;;;2.00;0.80;;;3.60;99.90;;;;;;5022274;28;20049;-74
2021/12/02 00:58:19;;;;;;;3.85;1.02;;;3.70;99.90;;;;;;5025708;28;20055;-74
2021/12/02 01:00:47;;;;;;;7.57;1.83;;;3.70;99.90;;;;;;5025758;28;20047;-74
2021/12/02 01:03:14;;;;;;;5.57;0.90;;;3.70;99.90;;;;;;5021515;28;20401;-74
2021/12/02 01:05:41;;;;;;;4.68;1.17;;;3.70;99.90;;;;;;5025040;28;20049;-74
2021/12/02 01:08:07;;;;;;;4.60;1.00;;;3.70;99.90;;;;;;5026980;28;20040;-74
2021/12/02 01:10:32;;;;;;;5.88;1.10;;;3.70;99.90;;;;;;5023466;28;20136;-74
2021/12/02 01:12:58;;;;;;;;;;;3.70;99.90;;;;;;5042462;28;20128;-73
2021/12/02 01:15:25;;;;;;;1.80;0.70;;;3.70;99.90;;;;;;5022261;28;19928;-74
2021/12/02 01:17:51;;;;;;;3.28;0.95;;;3.60;99.90;;;;;;5042682;28;20456;-74
2021/12/02 01:20:19;;;;;;;;;;;3.60;99.90;;;;;;5039855;28;20077;-73
2021/12/02 01:22:50;;;;;;;3.15;0.77;;;3.60;99.90;;;;;;5021806;28;19921;-74
2021/12/02 01:25:18;;;;;;;4.20;0.90;;;3.70;99.90;;;;;;5024021;28;20044;-74
2021/12/02 01:27:47;;;;;;;1.77;0.63;;;3.70;99.90;;;;;;5018835;28;20076;-74
2021/12/02 01:30:14;;;;;;;2.90;0.80;;;3.70;99.90;;;;;;5017336;28;20044;-74
2021/12/02 01:32:47;;;;;;;3.22;0.73;;;3.60;99.90;;;;;;5018094;28;20062;-74
2021/12/02 01:35:16;;;;;;;2.72;0.70;;;3.50;99.90;;;;;;5017509;28;20048;-74
2021/12/02 01:37:44;;;;;;;1.65;0.65;;;3.50;99.90;;;;;;5038574;28;20618;-74
2021/12/02 01:40:10;;;;;;;3.40;0.63;;;3.40;99.90;;;;;;5013405;28;20473;-74
2021/12/02 01:42:38;;;;;;;;;;;3.30;99.90;;;;;;5027804;28;20124;-74
2021/12/02 01:45:07;;;;;;;1.10;0.70;;;3.30;99.90;;;;;;5043809;28;19928;-74
2021/12/02 01:47:36;;;;;;;1.42;0.60;;;3.20;99.90;;;;;;5026935;28;20517;-74
2021/12/02 01:50:11;;;;;;;0.75;0.43;;;3.10;99.90;;;;;;5028690;28;20068;-75
2021/12/02 01:52:41;;;;;;;1.15;0.60;;;3.00;99.90;;;;;;5043328;28;20060;-74
2021/12/02 01:55:13;;;;;;;2.13;0.95;;;3.00;99.90;;;;;;5039162;28;20112;-74
2021/12/02 01:57:42;;;;;;;0.82;0.52;;;3.00;99.90;;;;;;5022490;28;20037;-74
2021/12/02 02:00:19;;;;;;;1.00;0.50;;;2.90;99.90;;;;;;5038832;28;20037;-74
2021/12/02 02:02:45;;;;;;;1.75;0.50;;;2.90;99.90;;;;;;5024119;28;20400;-74
2021/12/02 02:05:13;;;;;;;1.58;0.60;;;2.80;99.90;;;;;;5043234;28;20103;-74
2021/12/02 02:08:06;;;;;;;1.05;0.55;;;2.80;99.90;;;;;;5028676;28;20095;-74
2021/12/02 02:10:37;;;;;;;0.77;0.50;;;2.70;99.90;;;;;;5017898;28;20315;-74
2021/12/02 02:13:08;;;;;;;0.50;0.50;;;2.60;99.90;;;;;;5043129;28;20049;-74
2021/12/02 02:15:35;;;;;;;2.20;0.75;;;2.60;99.90;;;;;;5021136;28;20102;-74
2021/12/02 02:18:09;;;;;;;0.57;0.50;;;2.60;99.90;;;;;;5028307;28;20051;-74
2021/12/02 02:20:45;;;;;;;0.70;0.50;;;2.50;99.90;;;;;;5021441;28;20107;-74
2021/12/02 02:23:12;;;;;;;0.85;0.50;;;2.50;99.90;;;;;;5023090;28;20081;-74
2021/12/02 02:25:41;;;;;;;2.08;0.80;;;2.50;99.90;;;;;;5028480;28;20072;-74
2021/12/02 02:28:06;;;;;;;1.98;0.88;;;2.50;99.90;;;;;;5042893;28;20076;-74
2021/12/02 02:30:32;;;;;;;;;;;2.50;99.90;;;;;;5028761;28;20068;-74
2021/12/02 02:32:58;;;;;;;2.25;0.80;;;2.50;99.90;;;;;;5027723;28;19928;-74
2021/12/02 02:35:23;;;;;;;;;;;2.50;99.90;;;;;;5025760;28;20041;-74
2021/12/02 02:37:49;;;;;;;1.40;0.50;;;2.60;99.90;;;;;;5026648;28;19917;-74
2021/12/02 02:40:16;;;;;;;;;;;2.60;99.90;;;;;;5027181;28;20041;-74
2021/12/02 02:42:45;;;;;;;2.20;0.80;;;2.70;99.90;;;;;;5025202;28;19924;-74
2021/12/02 02:45:11;;;;;;;2.67;0.60;;;2.70;99.90;;;;;;5044834;28;20033;-74
2021/12/02 02:47:39;;;;;;;;;;;2.70;99.90;;;;;;5026097;28;20041;-74
2021/12/02 02:50:06;;;;;;;3.35;0.70;;;2.60;99.90;;;;;;5024594;28;19928;-74
2021/12/02 02:52:32;;;;;;;3.38;0.90;;;2.60;99.90;;;;;;5045840;28;20060;-74
2021/12/02 02:54:58;;;;;;;1.77;0.70;;;2.60;99.90;;;;;;5038809;28;20068;-74
2021/12/02 02:57:27;;;;;;;;;;;2.60;99.90;;;;;;5045185;28;20052;-74
2021/12/02 03:02:37;;;;;;;2.92;0.70;;;2.50;99.90;;;;;;5027020;28;20091;-73
2021/12/02 03:07:43;;;;;;;2.38;0.73;;;2.40;99.90;;;;;;5025363;28;20052;-73
2021/12/02 03:12:59;;;;;;;2.42;0.70;;;2.40;99.90;;;;;;5038305;28;20037;-74
2021/12/02 03:18:09;;;;;;;2.95;0.77;;;2.40;99.90;;;;;;5042973;28;20049;-74
2021/12/02 03:20:35;;;;;;;;;;;2.30;99.90;;;;;;5044970;28;20132;-74
2021/12/02 03:23:00;;;;;;;2.17;0.70;;;2.30;99.90;;;;;;5042238;28;19921;-74
2021/12/02 03:25:26;;;;;;;;;;;2.30;99.90;;;;;;5027548;28;20048;-74
2021/12/02 03:27:52;;;;;;;1.45;0.70;;;2.20;99.90;;;;;;5023875;28;19924;-73
2021/12/02 03:30:20;;;;;;;3.38;0.90;;;2.20;99.90;;;;;;5026849;28;20033;-74
2021/12/02 03:32:46;;;;;;;;;;;2.20;99.90;;;;;;5027358;28;20465;-74
2021/12/02 03:35:11;;;;;;;2.28;0.80;;;2.20;99.90;;;;;;5042475;28;19925;-74
2021/12/02 03:37:38;;;;;;;;;;;2.20;99.90;;;;;;5025267;28;20041;-74
2021/12/02 03:40:04;;;;;;;3.08;1.00;;;2.30;99.90;;;;;;5044003;28;19928;-74
2021/12/02 03:42:30;;;;;;;3.33;0.77;;;2.40;99.90;;;;;;5042019;28;20049;-74
2021/12/02 03:44:55;;;;;;;;;;;2.50;99.90;;;;;;5024134;28;20596;-74
2021/12/02 03:47:24;;;;;;;1.10;0.60;;;2.70;99.90;;;;;;5026847;28;19925;-74
2021/12/02 03:49:49;;;;;;;2.95;0.68;;;2.70;99.90;;;;;;5023083;28;20045;-74
2021/12/02 03:52:15;;;;;;;;;;;2.80;99.90;;;;;;5023706;28;20083;-74
2021/12/02 03:54:40;;;;;;;1.38;0.65;;;2.80;99.90;;;;;;5026189;28;19925;-74
2021/12/02 03:57:06;;;;;;;3.63;0.75;;;2.80;99.90;;;;;;5025176;28;20594;-74
2021/12/02 03:59:32;;;;;;;2.08;0.60;;;2.80;99.90;;;;;;5041680;28;20452;-74
2021/12/02 04:01:58;;;;;;;;;;;2.80;99.90;;;;;;5026186;28;20037;-74
2021/12/02 04:04:24;;;;;;;0.77;0.63;;;2.80;99.90;;;;;;5023036;28;19921;-74
2021/12/02 04:06:49;;;;;;;;;;;2.80;99.90;;;;;;5025358;28;20192;-74
2021/12/02 04:09:23;;;;;;;1.02;0.52;;;2.90;99.90;;;;;;5044132;28;20003;-74
2021/12/02 04:16:40;;;;;;;3.20;0.68;;;3.00;99.90;;;;;;5023726;28;20020;-74
2021/12/02 04:19:09;;;;;;;2.75;0.70;;;3.00;99.90;;;;;;5025577;28;20037;-74
2021/12/02 04:21:35;;;;;;;1.15;0.50;;;3.00;99.90;;;;;;5043363;28;20050;-74
2021/12/02 04:24:01;;;;;;;5.00;1.02;;;3.10;99.90;;;;;;5024217;28;20045;-74
2021/12/02 04:26:27;;;;;;;1.02;0.55;;;3.10;99.90;;;;;;5023961;28;20041;-74
2021/12/02 04:28:53;;;;;;;;;;;3.00;99.90;;;;;;5025114;28;20420;-74
2021/12/02 04:31:19;;;;;;;3.45;0.50;;;3.00;99.90;;;;;;5023399;28;19921;-74
2021/12/02 04:33:44;;;;;;;;;;;3.00;99.90;;;;;;5026383;28;20114;-74
2021/12/02 04:36:10;;;;;;;2.17;0.60;;;3.00;99.90;;;;;;5034663;28;19921;-74
2021/12/02 04:38:37;;;;;;;1.27;0.68;;;3.10;99.90;;;;;;5026122;28;20072;-74
2021/12/02 04:41:03;;;;;;;;;;;3.10;99.90;;;;;;5025345;28;20079;-75
2021/12/02 04:43:28;;;;;;;2.20;0.60;;;3.10;99.90;;;;;;5025669;28;20161;-74
2021/12/02 04:45:54;;;;;;;;;;;3.10;99.90;;;;;;5023271;28;20048;-74
2021/12/02 04:48:22;;;;;;;1.23;0.70;;;3.10;99.90;;;;;;5022525;28;20043;-74
2021/12/02 04:50:49;;;;;;;0.70;0.50;;;4.10;99.90;;;;;;5024784;28;20060;-74
2021/12/02 04:53:15;;;;;;;0.80;0.55;;;3.00;99.90;;;;;;5025560;28;20048;-74
2021/12/02 04:55:41;;;;;;;2.42;0.60;;;3.00;99.90;;;;;;5021970;28;20032;-74
2021/12/02 04:58:06;;;;;;;;;;;3.00;99.90;;;;;;5025114;28;20041;-74
2021/12/02 05:00:33;;;;;;;1.00;0.50;;;3.00;99.90;;;;;;5022553;28;19920;-74
2021/12/02 05:02:59;;;;;;;1.98;0.50;;;3.00;99.90;;;;;;5024065;28;20140;-74
2021/12/02 05:05:25;;;;;;;0.73;0.50;;;3.10;99.90;;;;;;5023971;28;20045;-74
2021/12/02 05:07:53;;;;;;;0.50;0.45;;;3.00;99.90;;;;;;5023965;28;20087;-74
2021/12/02 05:10:20;;;;;;;0.65;0.40;;;3.00;99.90;;;;;;5023454;28;20052;-74
2021/12/02 05:12:45;;;;;;;3.72;1.05;;;3.00;99.90;;;;;;5023456;28;20106;-74
2021/12/02 05:15:11;;;;;;;;;;;3.10;99.90;;;;;;5040267;28;20049;-73
2021/12/02 05:17:36;;;;;;;0.70;0.55;;;3.00;99.90;;;;;;5039200;28;20372;-74
2021/12/02 05:20:04;;;;;;;;;;;3.00;99.90;;;;;;5026106;28;20109;-74
2021/12/02 05:22:29;;;;;;;12.73;2.50;;;3.00;99.90;;;;;;5039978;28;19948;-74
2021/12/02 05:24:55;;;;;;;;;;;2.90;99.90;;;;;;5042316;28;20482;-74
2021/12/02 05:27:20;;;;;;;1.85;0.90;;;2.90;99.90;;;;;;5022930;28;20070;-73
2021/12/02 05:29:46;;;;;;;;;;;2.90;99.90;;;;;;5023840;28;20073;-74
2021/12/02 05:32:11;;;;;;;0.82;0.60;;;2.90;99.90;;;;;;5023603;28;19925;-73
2021/12/02 05:34:37;;;;;;;0.63;0.50;;;3.00;99.90;;;;;;5026738;28;20455;-74
2021/12/02 05:37:03;;;;;;;;;;;3.10;99.90;;;;;;5022122;28;20077;-74
2021/12/02 05:39:28;;;;;;;2.40;0.90;;;3.10;99.90;;;;;;5024749;28;20368;-74
2021/12/02 05:41:54;;;;;;;;;;;3.10;99.90;;;;;;5022846;28;20053;-74
2021/12/02 05:44:21;;;;;;;4.05;1.30;;;3.10;99.90;;;;;;5023014;28;19921;-74
2021/12/02 05:46:46;;;;;;;6.68;2.60;;;3.10;99.90;;;;;;5023287;28;20037;-75
2021/12/02 05:49:12;;;;;;;;;;;3.10;99.90;;;;;;5025836;28;20060;-75
2021/12/02 05:51:40;;;;;;;3.33;1.00;;;3.10;99.90;;;;;;5041430;28;20383;-74
2021/12/02 05:54:06;;;;;;;1.27;0.52;;;3.10;99.90;;;;;;5023499;28;20045;-75
2021/12/02 05:56:31;;;;;;;;;;;3.10;99.90;;;;;;5025077;28;20052;-74
2021/12/02 05:58:57;;;;;;;2.13;0.77;;;3.10;99.90;;;;;;5021193;28;20353;-74
2021/12/02 06:01:25;;;;;;;;;;;3.00;99.90;;;;;;5024952;28;20091;-75
2021/12/02 06:03:51;;;;;;;2.13;0.52;;;2.20;99.90;;;;;;5022652;28;19921;-73
2021/12/02 06:06:17;;;;;;;;;;;3.00;99.90;;;;;;5011225;28;20060;-74
2021/12/02 06:08:43;;;;;;;3.08;0.70;;;3.10;99.90;;;;;;5023521;28;19921;-75
2021/12/02 06:11:11;;;;;;;;;;;3.10;99.90;;;;;;5023741;28;20131;-74
2021/12/02 06:13:37;;;;;;;1.38;0.80;;;3.10;99.90;;;;;;5022058;28;20415;-75
2021/12/02 06:16:03;;;;;;;;;;;3.10;99.90;;;;;;5024336;28;20041;-74
2021/12/02 06:18:28;;;;;;;3.42;1.13;;;3.10;99.90;;;;;;5014932;28;19929;-73
2021/12/02 06:20:54;;;;;;;;;;;3.20;99.90;;;;;;5018681;28;20064;-76
2021/12/02 06:23:23;;;;;;;2.83;0.90;;;3.20;99.90;;;;;;5020847;28;20289;-76
2021/12/02 06:25:49;;;;;;;2.65;0.85;;;3.30;99.90;;;;;;5023975;28;20056;-76
2021/12/02 06:28:16;;;;;;;;;;;3.30;99.90;;;;;;5023496;28;20044;-76
2021/12/02 06:30:41;;;;;;;2.95;1.92;;;3.30;99.90;;;;;;5027082;28;19928;-75
2021/12/02 06:33:07;;;;;;;;;;;3.40;99.90;;;;;;5027004;28;20028;-77
2021/12/02 06:35:32;;;;;;;3.78;0.80;;;3.40;99.90;;;;;;5025166;28;20090;-75
2021/12/02 06:37:58;;;;;;;;;;;3.50;99.90;;;;;;5022747;28;20057;-77
2021/12/02 06:40:24;;;;;;;1.60;0.70;;;3.40;99.90;;;;;;5024338;28;19948;-77
2021/12/02 06:42:50;;;;;;;1.60;0.60;;;3.30;99.90;;;;;;5027642;28;21611;-75
2021/12/02 06:45:16;;;;;;;;;;;3.20;99.90;;;;;;5045654;28;20029;-75
2021/12/02 06:47:42;;;;;;;0.85;0.55;;;3.10;99.90;;;;;;5023525;28;20129;-76
2021/12/02 06:50:19;;;;;;;0.82;0.70;;;3.10;99.90;;;;;;5024649;28;20045;-72
2021/12/02 06:52:49;;;;;;;2.25;0.60;;;3.10;99.90;;;;;;5028250;28;20037;-75
2021/12/02 06:55:16;;;;;;;2.05;0.70;;;3.00;99.90;;;;;;5021966;28;20463;-72
2021/12/02 06:57:44;;;;;;;3.53;0.80;;;3.50;99.90;;;;;;5022318;28;20052;-74
2021/12/02 07:00:13;;;;;;;1.45;0.60;;;3.00;99.90;;;;;;5021851;28;20052;-75
2021/12/02 07:02:39;;;;;;;0.90;0.60;;;3.00;99.90;;;;;;5023724;28;20044;-74
2021/12/02 07:05:05;;;;;;;;;;;3.00;99.90;;;;;;5029464;28;20388;-75
2021/12/02 07:07:35;;;;;;;4.38;2.00;;;2.90;99.90;;;;;;5043884;28;19943;-76
2021/12/02 07:10:03;;;;;;;8.35;4.28;;;2.90;99.90;;;;;;5023656;28;20041;-75
2021/12/02 07:12:31;;;;;;;8.23;3.60;;;2.90;99.90;;;;;;5024484;28;20061;-76
2021/12/02 07:14:58;;;;;;;6.22;1.83;;;2.90;99.90;;;;;;5025310;28;20128;-73
2021/12/02 07:17:24;;;;;;;3.17;1.00;;;2.90;99.90;;;;;;5023383;28;20054;-72
2021/12/02 07:19:50;;;;;;;;;;;2.90;99.90;;;;;;5035990;28;20053;-73
2021/12/02 07:22:15;;;;;;;2.78;0.85;;;2.90;99.90;;;;;;5024030;28;20359;-75
2021/12/02 07:24:44;;;;;;;2.05;0.90;;;3.00;99.90;;;;;;5043678;28;20424;-76
2021/12/02 07:27:09;;;;;;;;;;;3.00;99.90;;;;;;5041110;28;20043;-74
2021/12/02 07:29:35;;;;;;;3.88;0.90;;;3.00;99.90;;;;;;5040763;28;19929;-74
2021/12/02 07:32:02;;;;;;;;;;;3.00;99.90;;;;;;5020820;28;20412;-72
2021/12/02 07:34:33;;;;;;;2.67;1.20;;;3.00;99.90;;;;;;5025138;28;19925;-75
2021/12/02 07:36:59;;;;;;;4.75;1.20;;;2.90;99.90;;;;;;5023212;28;20041;-76
2021/12/02 07:39:25;;;;;;;2.38;1.13;;;2.90;99.90;;;;;;5024753;28;20055;-77
2021/12/02 07:41:51;;;;;;;;;;;2.90;99.90;;;;;;5042964;28;20038;-77
2021/12/02 07:44:18;;;;;;;2.75;1.65;;;2.90;99.90;;;;;;5042967;28;19920;-78
2021/12/02 07:46:45;;;;;;;4.78;1.80;;;2.90;99.90;;;;;;5028611;28;20052;-76
2021/12/02 07:49:12;;;;;;;3.33;1.83;;;2.90;99.90;;;;;;5021749;28;20046;-78
2021/12/02 07:51:43;;;;;;;2.92;1.75;;;2.90;99.90;;;;;;5026504;28;20029;-76
2021/12/02 07:54:12;;;;;;;2.88;1.70;;;2.90;99.90;;;;;;5019301;28;20108;-76
2021/12/02 07:56:38;;;;;;;4.10;2.30;;;3.00;99.90;;;;;;5020371;28;20500;-73
2021/12/02 07:59:05;;;;;;;3.42;2.10;;;3.00;99.90;;;;;;5024522;28;20072;-73
2021/12/02 08:01:34;;;;;;;2.85;1.63;;;3.00;99.90;;;;;;5025874;28;20056;-73
2021/12/02 08:04:00;;;;;;;4.18;1.80;;;3.10;99.90;;;;;;5023960;28;20446;-74
2021/12/02 08:06:27;;;;;;;;;;;3.10;99.90;;;;;;5024959;28;20037;-72
2021/12/02 08:08:53;;;;;;;2.92;1.70;;;3.10;99.90;;;;;;5042492;28;19947;-72
2021/12/02 08:11:30;;;;;;;;;;;3.20;99.90;;;;;;5099185;23;20045;-72
2021/12/02 08:14:36;;;;;;;6.63;1.90;;;2.50;99.90;;;;;;5015969;28;20032;-72
2021/12/02 08:17:03;;;;;;;4.35;3.67;;;2.40;99.90;;;;;;5003679;28;20406;-73
2021/12/02 08:19:33;;;;;;;4.70;3.53;;;3.80;99.90;;;;;;5022261;28;20131;-76
2021/12/02 08:21:59;;;;;;;5.72;4.00;;;3.30;99.90;;;;;;5002939;28;20049;-75
2021/12/02 08:24:25;;;;;;;;;;;3.30;99.90;;;;;;5004001;28;20750;-76
2021/12/02 08:26:52;;;;;;;3.97;2.23;;;3.30;99.90;;;;;;5002069;28;19921;-75
2021/12/02 08:29:17;;;;;;;2.42;1.50;;;3.30;99.90;;;;;;5020207;28;20056;-76
2021/12/02 08:31:43;;;;;;;;;;;3.40;99.90;;;;;;5004394;28;20041;-75
2021/12/02 08:34:09;;;;;;;3.65;1.67;;;3.40;99.90;;;;;;5004217;28;19927;-77
2021/12/02 08:36:42;;;;;;;;;;;3.40;99.90;;;;;;5002924;28;20049;-75
2021/12/02 08:39:15;;;;;;;2.50;1.40;;;3.40;99.90;;;;;;5008595;28;20284;-77
2021/12/02 08:41:44;;;;;;;3.40;1.40;;;3.40;99.90;;;;;;5021123;28;20100;-77
2021/12/02 08:44:10;;;;;;;5.78;1.30;;;3.40;99.90;;;;;;5002198;28;20125;-75
2021/12/02 08:46:35;;;;;;;;;;;3.50;99.90;;;;;;5005451;28;20132;-75
2021/12/02 08:49:04;;;;;;;3.38;1.75;;;3.50;99.90;;;;;;5001854;28;19921;-75
2021/12/02 08:51:30;;;;;;;3.90;1.88;;;3.50;99.90;;;;;;5019994;28;20107;-75
2021/12/02 08:53:55;;;;;;;;;;;3.60;99.90;;;;;;5003064;28;20045;-75
2021/12/02 08:56:21;;;;;;;5.03;2.60;;;3.60;99.90;;;;;;5027471;28;19929;-76
2021/12/02 08:58:51;;;;;;;;;;;3.70;99.90;;;;;;5005411;28;20057;-76
2021/12/02 09:01:16;;;;;;;4.13;1.65;;;3.80;99.90;;;;;;5003569;28;19932;-75
2021/12/02 09:03:42;;;;;;;;;;;3.90;99.90;;;;;;5003545;28;20042;-75
2021/12/02 09:06:11;;;;;;;2.47;1.50;;;4.00;99.90;;;;;;4988705;28;19933;-75
2021/12/02 09:08:38;;;;;;;2.95;1.30;;;4.00;99.90;;;;;;5000658;28;20056;-76
2021/12/02 09:11:04;;;;;;;3.40;1.30;;;4.20;99.90;;;;;;5026315;28;20057;-76
2021/12/02 09:13:30;;;;;;;;;;;4.30;99.90;;;;;;5006267;28;20107;-76
2021/12/02 09:15:55;;;;;;;2.88;0.80;;;4.50;99.90;;;;;;5002008;28;19928;-76
2021/12/02 09:18:21;;;;;;;;;;;5.50;99.90;;;;;;5005430;28;20118;-76
2021/12/02 09:20:47;;;;;;;3.35;1.10;;;6.60;99.90;;;;;;5003321;28;21401;-76
2021/12/02 09:23:13;;;;;;;;;;;7.40;99.90;;;;;;5000294;28;20037;-76
2021/12/02 09:25:40;;;;;;;4.28;1.30;;;7.60;99.90;;;;;;5020687;28;19968;-76
2021/12/02 09:28:06;;;;;;;1.67;0.88;;;7.40;99.90;;;;;;5004379;28;20037;-76
2021/12/02 09:30:31;;;;;;;;;;;7.50;99.90;;;;;;5020569;28;20050;-77
2021/12/02 09:32:57;;;;;;;5.70;0.90;;;7.80;99.90;;;;;;5021153;28;19921;-77
2021/12/02 09:35:23;;;;;;;;;;;8.70;99.90;;;;;;5004023;28;20034;-76
2021/12/02 09:37:49;;;;;;;3.88;1.00;;;9.80;99.90;;;;;;5019484;28;19929;-76
2021/12/02 09:40:16;;;;;;;5.43;2.58;;;11.00;99.90;;;;;;5021596;28;20041;-75
2021/12/02 09:42:42;;;;;;;5.05;1.40;;;12.20;99.90;;;;;;5002499;28;20049;-75
2021/12/02 09:45:08;;;;;;;3.42;1.42;;;13.40;99.90;;;;;;5003465;28;20045;-75
2021/12/02 09:47:38;;;;;;;3.70;1.48;;;14.50;99.90;;;;;;5021328;28;20038;-75
2021/12/02 09:50:11;;;;;;;3.05;0.90;;;14.80;99.90;;;;;;5005030;28;20049;-74
2021/12/02 09:52:39;;;;;;;3.15;0.93;;;15.10;99.90;;;;;;5022534;28;20085;-74
2021/12/02 09:55:54;;;;;;;3.70;1.00;;;15.40;97.20;;;;;;5003872;28;20116;-74
2021/12/02 09:57:56;;;;;;;3.05;0.90;;;16.00;98.80;;;;;;4986393;28;20498;-75
2021/12/02 10:00:29;;;;;;;4.20;0.80;;;15.80;92.20;;;;;;5021755;28;20034;-75
2021/12/02 10:03:07;;;;;;;2.45;0.80;;;14.60;91.00;;;;;;5020183;28;20401;-75
2021/12/02 10:05:39;;;;;;;4.05;1.08;;;13.20;96.80;;;;;;5006861;28;20053;-75
2021/12/02 10:08:08;;;;;;;3.72;0.80;;;11.20;99.00;;;;;;5025979;28;20041;-75
2021/12/02 10:10:41;;;;;;;1.35;0.57;;;9.70;99.90;;;;;;5004548;28;20053;-75
2021/12/02 10:13:32;;;;;;;1.95;0.80;;;8.90;99.90;;;;;;5008172;28;20060;-75
2021/12/02 10:21:26;;;;;;;1.88;0.70;;;6.90;99.90;;;;;;5001998;28;20064;-75
2021/12/02 10:23:59;;;;;;;2.15;1.30;;;6.90;99.90;;;;;;5007626;28;20108;-75
2021/12/02 10:26:25;;;;;;;3.03;1.13;;;6.90;99.90;;;;;;5006021;28;20042;-75
2021/12/02 10:28:52;;;;;;;;;;;7.30;99.90;;;;;;5008952;28;20041;-76
2021/12/02 10:31:23;;;;;;;3.23;2.43;;;9.00;99.90;;;;;;5008925;28;20333;-75
2021/12/02 10:33:54;;;;;;;5.32;3.40;;;10.70;99.90;;;;;;5023519;28;20038;-75
2021/12/02 10:36:35;;;;;;;3.05;1.60;;;12.00;99.90;;;;;;5022388;28;20140;-75
2021/12/02 10:39:17;;;;;;;3.42;1.20;;;13.50;99.90;;;;;;5006641;28;20038;-75
2021/12/02 10:41:45;;;;;;;3.28;1.20;;;13.90;97.50;;;;;;5001810;28;20521;-75
2021/12/02 10:44:27;;;;;;;3.97;1.00;;;14.70;97.80;;;;;;4998803;28;20128;-75
2021/12/02 10:47:01;;;;;;;2.25;0.80;;;15.10;94.90;;;;;;5002253;28;20048;-75
2021/12/02 10:49:39;;;;;;;4.93;1.02;;;15.70;96.50;;;;;;5006460;28;20068;-75
2021/12/02 10:52:06;;;;;;;2.28;1.27;;;15.70;94.60;;;;;;5008715;28;20045;-75
2021/12/02 10:54:37;;;;;;;3.20;1.98;;;16.10;94.90;;;;;;5004807;28;20096;-75
2021/12/02 10:57:21;;;;;;;3.92;1.40;;;16.30;94.50;;;;;;5025843;28;20043;-76
2021/12/02 10:59:50;;;;;;;4.63;2.75;;;16.40;92.30;;;;;;5006840;28;20068;-75
2021/12/02 11:02:28;;;;;;;3.90;2.15;;;16.50;93.40;;;;;;5008503;28;20038;-75
2021/12/02 11:05:22;;;;;;;3.55;0.93;;;16.70;90.40;;;;;;5006666;28;20396;-75
2021/12/02 11:08:05;;;;;;;5.20;2.70;;;17.20;90.30;;;;;;5020678;28;20038;-76
2021/12/02 11:10:46;;;;;;;3.53;1.60;;;17.10;86.40;;;;;;4999740;28;20045;-77
2021/12/02 11:13:21;;;;;;;3.05;1.60;;;17.30;79.30;;;;;;5004736;28;20405;-75
2021/12/02 11:15:47;;;;;;;4.43;2.10;;;17.60;80.40;;;;;;5003276;28;20049;-78
2021/12/02 11:18:16;;;;;;;4.68;3.13;;;17.60;90.20;;;;;;5006787;28;20041;-74
2021/12/02 11:20:47;;;;;;;4.22;2.38;;;17.90;85.50;;;;;;5008075;28;20065;-75
2021/12/02 11:23:18;;;;;;;3.42;2.00;;;18.50;87.00;;;;;;5008353;28;20034;-75
2021/12/02 11:25:56;;;;;;;4.68;2.20;;;18.40;82.60;;;;;;5005169;28;20077;-78
2021/12/02 11:28:24;;;;;;;3.33;1.20;;;18.50;68.40;;;;;;5010487;28;20084;-77
2021/12/02 11:30:49;;;;;;;2.97;1.20;;;18.30;78.30;;;;;;5007007;28;20054;-73
2021/12/02 11:33:21;;;;;;;3.40;1.50;;;18.50;77.40;;;;;;5020933;28;20061;-74
2021/12/02 11:35:48;;;;;;;4.07;1.35;;;18.00;68.70;;;;;;5002202;28;20056;-77
2021/12/02 11:38:24;;;;;;;5.90;1.90;;;17.60;70.40;;;;;;5006693;28;20038;-76
2021/12/02 11:40:55;;;;;;;2.53;1.10;;;16.20;69.50;;;;;;5002776;28;20536;-77
2021/12/02 11:43:28;;;;;;;4.57;1.60;;;14.00;80.10;;;;;;5024134;28;20494;-77
2021/12/02 11:45:59;;;;;;;2.00;0.80;;;15.00;81.20;;;;;;5005434;28;20069;-77
2021/12/02 11:48:31;;;;;;;2.72;1.00;;;15.30;83.50;;;;;;5004020;28;20133;-86
2021/12/02 11:51:01;;;;;;;2.10;1.20;;;15.80;79.10;;;;;;5001083;28;20045;-79
2021/12/02 11:53:27;;;;;;;1.55;0.80;;;16.40;77.20;;;;;;5007090;28;20053;-79
2021/12/02 11:55:57;;;;;;;3.00;1.98;;;16.40;76.50;;;;;;5004376;28;20038;-85
2021/12/02 11:58:25;;;;;;;11.48;9.40;;;15.80;74.80;;;;;;5005648;28;20134;-73
2021/12/02 12:00:52;;;;;;;11.27;8.63;;;17.30;78.40;;;;;;5007356;28;20529;-75
2021/12/02 12:03:37;;;;;;;4.05;3.58;;;18.00;77.80;;;;;;5023238;28;20049;-74
2021/12/02 12:06:13;;;;;;;2.88;1.73;;;17.10;68.40;;;;;;5018378;28;20492;-75
2021/12/02 12:08:45;;;;;;;4.00;2.70;;;17.40;71.40;;;;;;5024084;28;20048;-75
2021/12/02 12:11:26;;;;;;;4.00;2.47;;;17.40;72.10;;;;;;5021923;28;20414;-74
2021/12/02 12:14:03;;;;;;;4.38;2.83;;;16.40;73.00;;;;;;5022247;28;20034;-76
2021/12/02 12:16:51;;;;;;;3.28;2.90;;;15.90;74.10;;;;;;5002963;28;20062;-79
2021/12/02 12:19:20;;;;;;;4.95;3.42;;;16.40;75.90;;;;;;5005576;28;20087;-77
2021/12/02 12:22:01;;;;;;;4.00;2.20;;;16.70;76.60;;;;;;5005037;28;20050;-80
2021/12/02 12:24:52;;;;;;;3.13;1.90;;;17.20;70.60;;;;;;4999913;28;20046;-80
2021/12/02 12:27:26;;;;;;;3.30;2.75;;;17.50;70.60;;;;;;5002687;28;20548;-81
2021/12/02 12:30:01;;;;;;;4.45;3.17;;;17.40;72.80;;;;;;5003381;28;20087;-91
2021/12/02 12:38:35;;;;;;;4.65;3.10;;;17.70;71.20;;;;;;5021245;28;20060;-82
2021/12/02 12:41:18;;;;;;;5.78;5.18;;;17.70;62.30;;;;;;5020321;28;20049;-86
2021/12/02 12:43:53;;;;;;;7.75;3.90;;;17.70;67.20;;;;;;5005627;28;20081;-85
2021/12/02 12:46:52;;;;;;;6.25;5.20;;;17.50;68.00;;;;;;5023573;28;20091;-85
2021/12/02 12:49:18;;;;;;;4.95;3.90;;;17.40;65.60;;;;;;4998709;28;20492;-81
2021/12/02 12:51:50;;;;;;;3.97;2.40;;;17.10;69.10;;;;;;5004511;28;20378;-81
2021/12/02 12:54:20;;;;;;;6.78;5.72;;;17.00;69.30;;;;;;5004057;28;20035;-78
2021/12/02 12:56:47;;;;;;;6.35;5.47;;;16.60;69.00;;;;;;5005988;28;20048;-79
2021/12/02 12:59:18;;;;;;;4.70;2.53;;;16.50;69.80;;;;;;4993930;28;20528;-76
2021/12/02 13:02:05;;;;;;;4.03;2.10;;;16.00;71.60;;;;;;5019601;28;20387;-79
2021/12/02 13:04:48;;;;;;;3.25;1.30;;;15.70;70.30;;;;;;5000222;28;20504;-80
2021/12/02 13:07:16;;;;;;;3.25;1.73;;;15.40;72.20;;;;;;5002258;28;20364;-77
2021/12/02 13:10:03;;;;;;;6.20;3.58;;;15.40;78.10;;;;;;5004377;28;20140;-76
2021/12/02 13:12:37;;;;;;;4.22;2.28;;;15.10;77.20;;;;;;5001389;28;20571;-77
2021/12/02 13:15:05;;;;;;;4.50;3.60;;;14.90;80.70;;;;;;5002834;28;20042;-77
2021/12/02 13:17:40;;;;;;;5.47;2.95;;;14.50;82.10;;;;;;5021601;28;20050;-77
2021/12/02 13:20:53;;;;;;;3.55;2.25;;;14.10;84.50;;;;;;5004725;28;20045;-76
2021/12/02 13:23:25;;;;;;;2.67;1.20;;;13.70;85.40;;;;;;5001394;28;20053;-87
2021/12/02 13:26:05;;;;;;;4.57;2.20;;;13.20;87.80;;;;;;5000490;28;20053;-83
2021/12/02 13:28:42;;;;;;;3.53;2.20;;;12.50;90.60;;;;;;4998575;28;20422;-81
2021/12/02 13:31:11;;;;;;;3.25;1.88;;;11.80;92.30;;;;;;5001283;28;20046;-82
2021/12/02 13:33:43;;;;;;;3.13;1.60;;;11.60;94.20;;;;;;5006523;28;20049;-87
2021/12/02 13:36:11;;;;;;;2.58;1.08;;;11.00;95.50;;;;;;5022434;28;20143;-84
2021/12/02 13:38:38;;;;;;;2.72;1.00;;;10.70;96.90;;;;;;5019867;28;20427;-83
2021/12/02 13:41:11;;;;;;;3.15;0.90;;;10.60;97.90;;;;;;5004673;28;20049;-85
2021/12/02 13:44:12;;;;;;;2.50;1.00;;;10.40;98.40;;;;;;5001720;28;20046;-78
2021/12/02 13:46:57;;;;;;;3.30;1.40;;;10.10;99.60;;;;;;5004808;28;20069;-76
2021/12/02 13:49:39;;;;;;;2.72;0.85;;;9.70;99.50;;;;;;4999248;28;20391;-74
2021/12/02 13:52:20;;;;;;;1.55;0.63;;;9.20;99.90;;;;;;5005474;28;20049;-75